sensor_id;sensor_type;location;lat;lon;timestamp;P1;durP1;ratioP1;P2;durP2;ratioP2
40599;SDS011;26309;50.924;4.754;2023-07-29T00:01:03;6.80;;;2.30;;
40599;SDS011;26309;50.924;4.754;2023-07-29T00:03:29;3.15;;;1.98;;
40599;SDS011;26309;50.924;4.754;2023-07-29T00:05:57;3.72;;;2.38;;
40599;SDS011;26309;50.924;4.754;2023-07-29T00:08:23;4.60;;;2.33;;
40599;SDS011;26309;50.924;4.754;2023-07-29T00:10:49;4.10;;;2.40;;
40599;SDS011;26309;50.924;4.754;2023-07-29T00:13:15;3.40;;;2.30;;
40599;SDS011;26309;50.924;4.754;2023-07-29T00:15:41;6.20;;;2.30;;
40599;SDS011;26309;50.924;4.754;2023-07-29T00:18:07;4.30;;;2.40;;
40599;SDS011;26309;50.924;4.754;2023-07-29T00:20:33;3.03;;;2.30;;
40599;SDS011;26309;50.924;4.754;2023-07-29T00:23:01;2.78;;;2.30;;
40599;SDS011;26309;50.924;4.754;2023-07-29T00:25:28;2.63;;;2.28;;
40599;SDS011;26309;50.924;4.754;2023-07-29T00:27:55;3.97;;;2.50;;
40599;SDS011;26309;50.924;4.754;2023-07-29T00:30:25;3.97;;;2.13;;
40599;SDS011;26309;50.924;4.754;2023-07-29T00:32:50;2.47;;;1.90;;
40599;SDS011;26309;50.924;4.754;2023-07-29T00:35:17;10.27;;;2.38;;
40599;SDS011;26309;50.924;4.754;2023-07-29T00:37:43;4.70;;;2.28;;
40599;SDS011;26309;50.924;4.754;2023-07-29T00:40:15;2.33;;;2.08;;
40599;SDS011;26309;50.924;4.754;2023-07-29T00:42:58;2.35;;;2.15;;
40599;SDS011;26309;50.924;4.754;2023-07-29T00:45:26;2.00;;;1.90;;
40599;SDS011;26309;50.924;4.754;2023-07-29T00:47:55;4.07;;;2.10;;
40599;SDS011;26309;50.924;4.754;2023-07-29T00:50:21;5.32;;;2.20;;
40599;SDS011;26309;50.924;4.754;2023-07-29T00:52:48;2.78;;;2.20;;
40599;SDS011;26309;50.924;4.754;2023-07-29T00:55:15;2.10;;;1.88;;
40599;SDS011;26309;50.924;4.754;2023-07-29T00:57:41;3.35;;;2.03;;
40599;SDS011;26309;50.924;4.754;2023-07-29T01:00:13;5.07;;;1.95;;
40599;SDS011;26309;50.924;4.754;2023-07-29T01:02:39;2.65;;;1.75;;
40599;SDS011;26309;50.924;4.754;2023-07-29T01:05:08;3.28;;;2.03;;
40599;SDS011;26309;50.924;4.754;2023-07-29T01:13:50;1.67;;;1.58;;
40599;SDS011;26309;50.924;4.754;2023-07-29T01:16:34;3.03;;;1.90;;
40599;SDS011;26309;50.924;4.754;2023-07-29T01:19:19;5.03;;;1.92;;
40599;SDS011;26309;50.924;4.754;2023-07-29T01:21:58;2.15;;;1.73;;
40599;SDS011;26309;50.924;4.754;2023-07-29T01:24:25;2.53;;;1.70;;
40599;SDS011;26309;50.924;4.754;2023-07-29T01:26:51;3.72;;;1.77;;
40599;SDS011;26309;50.924;4.754;2023-07-29T01:29:17;2.80;;;1.83;;
40599;SDS011;26309;50.924;4.754;2023-07-29T01:31:44;3.92;;;1.92;;
40599;SDS011;26309;50.924;4.754;2023-07-29T01:34:22;3.40;;;1.80;;
40599;SDS011;26309;50.924;4.754;2023-07-29T01:37:00;2.95;;;1.60;;
40599;SDS011;26309;50.924;4.754;2023-07-29T01:39:29;2.97;;;2.15;;
40599;SDS011;26309;50.924;4.754;2023-07-29T01:42:00;5.63;;;2.00;;
40599;SDS011;26309;50.924;4.754;2023-07-29T01:44:30;4.10;;;1.90;;
40599;SDS011;26309;50.924;4.754;2023-07-29T01:46:57;5.60;;;2.00;;
40599;SDS011;26309;50.924;4.754;2023-07-29T01:49:22;2.28;;;1.63;;
40599;SDS011;26309;50.924;4.754;2023-07-29T01:51:48;2.35;;;1.95;;
40599;SDS011;26309;50.924;4.754;2023-07-29T01:54:14;2.63;;;1.85;;
40599;SDS011;26309;50.924;4.754;2023-07-29T01:56:40;2.65;;;1.80;;
40599;SDS011;26309;50.924;4.754;2023-07-29T01:59:06;5.75;;;1.70;;
40599;SDS011;26309;50.924;4.754;2023-07-29T02:01:33;4.97;;;2.20;;
40599;SDS011;26309;50.924;4.754;2023-07-29T02:03:59;3.38;;;2.20;;
40599;SDS011;26309;50.924;4.754;2023-07-29T02:06:24;3.25;;;1.50;;
40599;SDS011;26309;50.924;4.754;2023-07-29T02:08:52;4.13;;;1.90;;
40599;SDS011;26309;50.924;4.754;2023-07-29T02:11:18;3.13;;;2.00;;
40599;SDS011;26309;50.924;4.754;2023-07-29T02:13:45;3.65;;;2.00;;
40599;SDS011;26309;50.924;4.754;2023-07-29T02:16:13;3.40;;;2.10;;
40599;SDS011;26309;50.924;4.754;2023-07-29T02:18:52;2.20;;;1.88;;
40599;SDS011;26309;50.924;4.754;2023-07-29T02:21:17;3.00;;;1.98;;
40599;SDS011;26309;50.924;4.754;2023-07-29T02:23:43;2.63;;;1.95;;
40599;SDS011;26309;50.924;4.754;2023-07-29T02:26:09;5.13;;;2.10;;
40599;SDS011;26309;50.924;4.754;2023-07-29T02:28:38;6.55;;;2.08;;
40599;SDS011;26309;50.924;4.754;2023-07-29T02:34:14;4.25;;;1.98;;
40599;SDS011;26309;50.924;4.754;2023-07-29T02:36:40;6.85;;;2.10;;
40599;SDS011;26309;50.924;4.754;2023-07-29T02:39:06;7.70;;;2.30;;
40599;SDS011;26309;50.924;4.754;2023-07-29T02:41:32;10.80;;;1.98;;
40599;SDS011;26309;50.924;4.754;2023-07-29T02:43:58;4.82;;;1.58;;
40599;SDS011;26309;50.924;4.754;2023-07-29T02:46:24;5.82;;;2.00;;
40599;SDS011;26309;50.924;4.754;2023-07-29T02:48:50;4.97;;;2.20;;
40599;SDS011;26309;50.924;4.754;2023-07-29T02:51:16;4.80;;;2.35;;
40599;SDS011;26309;50.924;4.754;2023-07-29T02:53:41;4.35;;;2.22;;
40599;SDS011;26309;50.924;4.754;2023-07-29T02:56:07;2.45;;;2.25;;
40599;SDS011;26309;50.924;4.754;2023-07-29T02:58:35;5.95;;;2.33;;
40599;SDS011;26309;50.924;4.754;2023-07-29T03:01:06;7.03;;;2.20;;
40599;SDS011;26309;50.924;4.754;2023-07-29T03:03:32;3.42;;;2.30;;
40599;SDS011;26309;50.924;4.754;2023-07-29T03:05:59;6.72;;;2.17;;
40599;SDS011;26309;50.924;4.754;2023-07-29T03:08:30;4.38;;;2.08;;
40599;SDS011;26309;50.924;4.754;2023-07-29T03:10:57;4.75;;;2.42;;
40599;SDS011;26309;50.924;4.754;2023-07-29T03:13:23;3.20;;;2.22;;
40599;SDS011;26309;50.924;4.754;2023-07-29T03:15:51;4.82;;;2.58;;
40599;SDS011;26309;50.924;4.754;2023-07-29T03:18:16;4.65;;;2.47;;
40599;SDS011;26309;50.924;4.754;2023-07-29T03:20:42;3.85;;;2.30;;
40599;SDS011;26309;50.924;4.754;2023-07-29T03:23:08;3.15;;;2.30;;
40599;SDS011;26309;50.924;4.754;2023-07-29T03:25:35;2.47;;;2.05;;
40599;SDS011;26309;50.924;4.754;2023-07-29T03:28:01;2.10;;;1.67;;
40599;SDS011;26309;50.924;4.754;2023-07-29T03:30:27;5.55;;;2.38;;
40599;SDS011;26309;50.924;4.754;2023-07-29T03:32:53;3.33;;;2.15;;
40599;SDS011;26309;50.924;4.754;2023-07-29T03:35:19;3.67;;;2.40;;
40599;SDS011;26309;50.924;4.754;2023-07-29T03:37:46;3.40;;;2.17;;
40599;SDS011;26309;50.924;4.754;2023-07-29T03:40:12;4.63;;;2.42;;
40599;SDS011;26309;50.924;4.754;2023-07-29T03:42:38;3.25;;;2.00;;
40599;SDS011;26309;50.924;4.754;2023-07-29T03:45:04;5.88;;;2.50;;
40599;SDS011;26309;50.924;4.754;2023-07-29T03:47:30;7.10;;;2.30;;
40599;SDS011;26309;50.924;4.754;2023-07-29T03:49:56;5.38;;;2.25;;
40599;SDS011;26309;50.924;4.754;2023-07-29T03:52:22;5.88;;;2.00;;
40599;SDS011;26309;50.924;4.754;2023-07-29T03:54:54;2.42;;;2.22;;
40599;SDS011;26309;50.924;4.754;2023-07-29T03:57:21;4.20;;;2.38;;
40599;SDS011;26309;50.924;4.754;2023-07-29T03:59:46;4.72;;;2.65;;
40599;SDS011;26309;50.924;4.754;2023-07-29T04:02:12;2.55;;;2.33;;
40599;SDS011;26309;50.924;4.754;2023-07-29T04:04:39;4.43;;;2.17;;
40599;SDS011;26309;50.924;4.754;2023-07-29T04:07:07;5.13;;;2.38;;
40599;SDS011;26309;50.924;4.754;2023-07-29T04:09:34;2.67;;;2.05;;
40599;SDS011;26309;50.924;4.754;2023-07-29T04:12:00;4.90;;;2.38;;
40599;SDS011;26309;50.924;4.754;2023-07-29T04:14:28;2.85;;;2.47;;
40599;SDS011;26309;50.924;4.754;2023-07-29T04:16:56;3.90;;;2.53;;
40599;SDS011;26309;50.924;4.754;2023-07-29T04:19:22;4.22;;;2.45;;
40599;SDS011;26309;50.924;4.754;2023-07-29T04:21:48;2.45;;;2.25;;
40599;SDS011;26309;50.924;4.754;2023-07-29T04:24:15;4.05;;;2.40;;
40599;SDS011;26309;50.924;4.754;2023-07-29T04:26:41;3.85;;;2.40;;
40599;SDS011;26309;50.924;4.754;2023-07-29T04:29:07;4.82;;;2.53;;
40599;SDS011;26309;50.924;4.754;2023-07-29T04:31:35;4.05;;;2.63;;
40599;SDS011;26309;50.924;4.754;2023-07-29T04:34:06;4.07;;;2.50;;
40599;SDS011;26309;50.924;4.754;2023-07-29T04:36:32;5.88;;;2.50;;
40599;SDS011;26309;50.924;4.754;2023-07-29T04:38:58;4.93;;;2.30;;
40599;SDS011;26309;50.924;4.754;2023-07-29T04:41:23;7.28;;;2.15;;
40599;SDS011;26309;50.924;4.754;2023-07-29T04:43:49;6.70;;;2.70;;
40599;SDS011;26309;50.924;4.754;2023-07-29T04:46:17;5.05;;;2.45;;
40599;SDS011;26309;50.924;4.754;2023-07-29T04:48:43;4.15;;;2.47;;
40599;SDS011;26309;50.924;4.754;2023-07-29T04:51:09;2.58;;;2.33;;
40599;SDS011;26309;50.924;4.754;2023-07-29T04:53:35;6.22;;;2.60;;
40599;SDS011;26309;50.924;4.754;2023-07-29T04:56:02;3.72;;;2.40;;
40599;SDS011;26309;50.924;4.754;2023-07-29T04:58:30;5.93;;;2.47;;
40599;SDS011;26309;50.924;4.754;2023-07-29T05:00:59;3.58;;;2.67;;
40599;SDS011;26309;50.924;4.754;2023-07-29T05:03:32;6.40;;;2.42;;
40599;SDS011;26309;50.924;4.754;2023-07-29T05:05:59;5.82;;;2.38;;
40599;SDS011;26309;50.924;4.754;2023-07-29T05:08:28;5.53;;;2.50;;
40599;SDS011;26309;50.924;4.754;2023-07-29T05:10:53;2.72;;;2.20;;
40599;SDS011;26309;50.924;4.754;2023-07-29T05:13:20;2.65;;;2.00;;
40599;SDS011;26309;50.924;4.754;2023-07-29T05:15:52;2.30;;;2.00;;
40599;SDS011;26309;50.924;4.754;2023-07-29T05:18:21;6.70;;;2.25;;
40599;SDS011;26309;50.924;4.754;2023-07-29T05:20:47;4.50;;;2.45;;
40599;SDS011;26309;50.924;4.754;2023-07-29T05:23:13;5.32;;;2.15;;
40599;SDS011;26309;50.924;4.754;2023-07-29T05:28:16;4.65;;;2.00;;
40599;SDS011;26309;50.924;4.754;2023-07-29T05:30:43;6.95;;;1.90;;
40599;SDS011;26309;50.924;4.754;2023-07-29T05:33:09;6.32;;;2.00;;
40599;SDS011;26309;50.924;4.754;2023-07-29T05:35:35;2.17;;;1.60;;
40599;SDS011;26309;50.924;4.754;2023-07-29T05:38:01;2.92;;;1.77;;
40599;SDS011;26309;50.924;4.754;2023-07-29T05:40:30;5.30;;;2.10;;
40599;SDS011;26309;50.924;4.754;2023-07-29T05:42:56;2.22;;;1.83;;
40599;SDS011;26309;50.924;4.754;2023-07-29T05:45:22;3.15;;;2.00;;
40599;SDS011;26309;50.924;4.754;2023-07-29T05:47:56;3.92;;;2.20;;
40599;SDS011;26309;50.924;4.754;2023-07-29T05:50:47;2.47;;;1.88;;
40599;SDS011;26309;50.924;4.754;2023-07-29T05:53:17;4.25;;;1.80;;
40599;SDS011;26309;50.924;4.754;2023-07-29T05:55:44;2.60;;;2.00;;
40599;SDS011;26309;50.924;4.754;2023-07-29T05:58:10;4.25;;;1.88;;
40599;SDS011;26309;50.924;4.754;2023-07-29T06:00:36;2.63;;;1.67;;
40599;SDS011;26309;50.924;4.754;2023-07-29T06:03:01;4.03;;;1.80;;
40599;SDS011;26309;50.924;4.754;2023-07-29T06:05:30;3.38;;;1.65;;
40599;SDS011;26309;50.924;4.754;2023-07-29T06:07:56;3.60;;;1.60;;
40599;SDS011;26309;50.924;4.754;2023-07-29T06:10:22;4.55;;;1.50;;
40599;SDS011;26309;50.924;4.754;2023-07-29T06:12:48;3.92;;;2.10;;
40599;SDS011;26309;50.924;4.754;2023-07-29T06:15:14;2.03;;;1.60;;
40599;SDS011;26309;50.924;4.754;2023-07-29T06:17:40;5.57;;;1.67;;
40599;SDS011;26309;50.924;4.754;2023-07-29T06:20:06;1.75;;;1.65;;
40599;SDS011;26309;50.924;4.754;2023-07-29T06:22:32;2.67;;;1.70;;
40599;SDS011;26309;50.924;4.754;2023-07-29T06:24:58;1.77;;;1.60;;
40599;SDS011;26309;50.924;4.754;2023-07-29T06:27:24;3.00;;;1.45;;
40599;SDS011;26309;50.924;4.754;2023-07-29T06:29:50;2.70;;;1.40;;
40599;SDS011;26309;50.924;4.754;2023-07-29T06:32:16;3.42;;;1.60;;
40599;SDS011;26309;50.924;4.754;2023-07-29T06:34:42;3.58;;;1.40;;
40599;SDS011;26309;50.924;4.754;2023-07-29T06:37:08;5.20;;;1.77;;
40599;SDS011;26309;50.924;4.754;2023-07-29T06:39:33;1.60;;;1.50;;
40599;SDS011;26309;50.924;4.754;2023-07-29T06:41:59;3.22;;;1.70;;
40599;SDS011;26309;50.924;4.754;2023-07-29T06:44:25;1.80;;;1.40;;
40599;SDS011;26309;50.924;4.754;2023-07-29T06:46:51;2.72;;;1.48;;
40599;SDS011;26309;50.924;4.754;2023-07-29T06:49:18;2.92;;;1.77;;
40599;SDS011;26309;50.924;4.754;2023-07-29T06:51:43;2.72;;;1.55;;
40599;SDS011;26309;50.924;4.754;2023-07-29T06:54:09;1.85;;;1.20;;
40599;SDS011;26309;50.924;4.754;2023-07-29T06:56:35;1.92;;;1.65;;
40599;SDS011;26309;50.924;4.754;2023-07-29T06:59:01;1.80;;;1.40;;
40599;SDS011;26309;50.924;4.754;2023-07-29T07:01:27;2.10;;;1.40;;
40599;SDS011;26309;50.924;4.754;2023-07-29T07:03:53;4.20;;;1.50;;
40599;SDS011;26309;50.924;4.754;2023-07-29T07:06:21;2.72;;;1.60;;
40599;SDS011;26309;50.924;4.754;2023-07-29T07:08:47;3.90;;;1.38;;
40599;SDS011;26309;50.924;4.754;2023-07-29T07:11:13;4.88;;;1.73;;
40599;SDS011;26309;50.924;4.754;2023-07-29T07:13:39;2.17;;;1.40;;
40599;SDS011;26309;50.924;4.754;2023-07-29T07:16:05;4.00;;;1.50;;
40599;SDS011;26309;50.924;4.754;2023-07-29T07:18:30;3.17;;;1.40;;
40599;SDS011;26309;50.924;4.754;2023-07-29T07:20:56;2.88;;;1.30;;
40599;SDS011;26309;50.924;4.754;2023-07-29T07:23:22;1.77;;;1.33;;
40599;SDS011;26309;50.924;4.754;2023-07-29T07:25:48;2.85;;;1.55;;
40599;SDS011;26309;50.924;4.754;2023-07-29T07:28:14;3.25;;;1.30;;
40599;SDS011;26309;50.924;4.754;2023-07-29T07:30:40;2.88;;;1.40;;
40599;SDS011;26309;50.924;4.754;2023-07-29T07:33:08;4.13;;;1.50;;
40599;SDS011;26309;50.924;4.754;2023-07-29T07:35:34;2.95;;;1.30;;
40599;SDS011;26309;50.924;4.754;2023-07-29T07:38:00;1.33;;;1.20;;
40599;SDS011;26309;50.924;4.754;2023-07-29T07:40:30;3.72;;;1.40;;
40599;SDS011;26309;50.924;4.754;2023-07-29T07:42:56;2.38;;;1.30;;
40599;SDS011;26309;50.924;4.754;2023-07-29T07:45:22;1.85;;;1.33;;
40599;SDS011;26309;50.924;4.754;2023-07-29T07:47:48;5.07;;;1.10;;
40599;SDS011;26309;50.924;4.754;2023-07-29T07:50:13;1.90;;;1.20;;
40599;SDS011;26309;50.924;4.754;2023-07-29T07:52:39;1.20;;;1.10;;
40599;SDS011;26309;50.924;4.754;2023-07-29T07:55:05;1.92;;;1.40;;
40599;SDS011;26309;50.924;4.754;2023-07-29T07:57:32;1.42;;;1.30;;
40599;SDS011;26309;50.924;4.754;2023-07-29T07:59:57;1.33;;;1.10;;
40599;SDS011;26309;50.924;4.754;2023-07-29T08:02:23;1.52;;;1.20;;
40599;SDS011;26309;50.924;4.754;2023-07-29T08:04:49;2.25;;;1.20;;
40599;SDS011;26309;50.924;4.754;2023-07-29T08:07:15;1.98;;;1.55;;
40599;SDS011;26309;50.924;4.754;2023-07-29T08:09:40;2.67;;;1.58;;
40599;SDS011;26309;50.924;4.754;2023-07-29T08:12:06;1.80;;;1.70;;
40599;SDS011;26309;50.924;4.754;2023-07-29T08:14:32;2.03;;;1.27;;
40599;SDS011;26309;50.924;4.754;2023-07-29T08:16:58;1.35;;;1.25;;
40599;SDS011;26309;50.924;4.754;2023-07-29T08:19:24;1.80;;;1.00;;
40599;SDS011;26309;50.924;4.754;2023-07-29T08:21:50;1.48;;;1.10;;
40599;SDS011;26309;50.924;4.754;2023-07-29T08:24:15;2.10;;;1.38;;
40599;SDS011;26309;50.924;4.754;2023-07-29T08:26:41;2.60;;;1.30;;
40599;SDS011;26309;50.924;4.754;2023-07-29T08:29:07;3.20;;;1.15;;
40599;SDS011;26309;50.924;4.754;2023-07-29T08:31:33;1.10;;;1.10;;
40599;SDS011;26309;50.924;4.754;2023-07-29T08:33:59;2.50;;;1.20;;
40599;SDS011;26309;50.924;4.754;2023-07-29T08:36:25;3.08;;;1.35;;
40599;SDS011;26309;50.924;4.754;2023-07-29T08:38:51;2.58;;;1.70;;
40599;SDS011;26309;50.924;4.754;2023-07-29T08:41:41;5.30;;;1.40;;
40599;SDS011;26309;50.924;4.754;2023-07-29T08:44:24;1.20;;;1.10;;
40599;SDS011;26309;50.924;4.754;2023-07-29T08:46:55;2.25;;;1.17;;
40599;SDS011;26309;50.924;4.754;2023-07-29T08:49:22;3.22;;;1.27;;
40599;SDS011;26309;50.924;4.754;2023-07-29T08:51:49;3.90;;;1.50;;
40599;SDS011;26309;50.924;4.754;2023-07-29T08:54:18;3.70;;;1.30;;
40599;SDS011;26309;50.924;4.754;2023-07-29T08:56:44;2.58;;;1.30;;
40599;SDS011;26309;50.924;4.754;2023-07-29T08:59:10;1.55;;;1.00;;
40599;SDS011;26309;50.924;4.754;2023-07-29T09:01:41;1.70;;;1.30;;
40599;SDS011;26309;50.924;4.754;2023-07-29T09:04:07;2.10;;;1.30;;
40599;SDS011;26309;50.924;4.754;2023-07-29T09:06:33;2.53;;;1.30;;
40599;SDS011;26309;50.924;4.754;2023-07-29T09:09:00;2.03;;;1.50;;
40599;SDS011;26309;50.924;4.754;2023-07-29T09:11:27;3.63;;;1.40;;
40599;SDS011;26309;50.924;4.754;2023-07-29T09:13:54;3.03;;;1.50;;
40599;SDS011;26309;50.924;4.754;2023-07-29T09:16:20;1.30;;;1.20;;
40599;SDS011;26309;50.924;4.754;2023-07-29T09:18:47;2.17;;;1.33;;
40599;SDS011;26309;50.924;4.754;2023-07-29T09:21:16;7.07;;;1.45;;
40599;SDS011;26309;50.924;4.754;2023-07-29T09:23:43;1.70;;;1.30;;
40599;SDS011;26309;50.924;4.754;2023-07-29T09:26:10;1.35;;;1.25;;
40599;SDS011;26309;50.924;4.754;2023-07-29T09:28:37;2.38;;;1.40;;
40599;SDS011;26309;50.924;4.754;2023-07-29T09:31:05;1.98;;;1.30;;
40599;SDS011;26309;50.924;4.754;2023-07-29T09:33:35;3.45;;;1.55;;
40599;SDS011;26309;50.924;4.754;2023-07-29T09:36:02;4.05;;;1.50;;
40599;SDS011;26309;50.924;4.754;2023-07-29T09:38:34;1.80;;;1.52;;
40599;SDS011;26309;50.924;4.754;2023-07-29T09:41:01;1.50;;;1.40;;
40599;SDS011;26309;50.924;4.754;2023-07-29T09:43:31;2.28;;;1.30;;
40599;SDS011;26309;50.924;4.754;2023-07-29T09:46:01;2.90;;;1.50;;
40599;SDS011;26309;50.924;4.754;2023-07-29T09:48:32;2.55;;;1.60;;
40599;SDS011;26309;50.924;4.754;2023-07-29T09:50:59;2.33;;;1.50;;
40599;SDS011;26309;50.924;4.754;2023-07-29T09:53:25;2.90;;;1.63;;
40599;SDS011;26309;50.924;4.754;2023-07-29T09:55:52;4.20;;;1.48;;
40599;SDS011;26309;50.924;4.754;2023-07-29T09:58:27;1.70;;;1.60;;
40599;SDS011;26309;50.924;4.754;2023-07-29T10:00:54;1.95;;;1.63;;
40599;SDS011;26309;50.924;4.754;2023-07-29T10:03:20;1.42;;;1.27;;
40599;SDS011;26309;50.924;4.754;2023-07-29T10:05:47;2.17;;;1.65;;
40599;SDS011;26309;50.924;4.754;2023-07-29T10:08:13;3.67;;;1.63;;
40599;SDS011;26309;50.924;4.754;2023-07-29T10:10:43;2.25;;;1.30;;
40599;SDS011;26309;50.924;4.754;2023-07-29T10:13:09;2.10;;;1.90;;
40599;SDS011;26309;50.924;4.754;2023-07-29T10:15:36;3.20;;;1.80;;
40599;SDS011;26309;50.924;4.754;2023-07-29T10:18:02;1.88;;;1.50;;
40599;SDS011;26309;50.924;4.754;2023-07-29T10:20:30;2.35;;;1.52;;
40599;SDS011;26309;50.924;4.754;2023-07-29T10:22:59;2.35;;;1.80;;
40599;SDS011;26309;50.924;4.754;2023-07-29T10:25:27;2.10;;;1.80;;
40599;SDS011;26309;50.924;4.754;2023-07-29T10:28:06;4.97;;;1.90;;
40599;SDS011;26309;50.924;4.754;2023-07-29T10:30:32;2.97;;;1.50;;
40599;SDS011;26309;50.924;4.754;2023-07-29T10:33:01;3.15;;;1.70;;
40599;SDS011;26309;50.924;4.754;2023-07-29T10:35:29;3.33;;;1.60;;
40599;SDS011;26309;50.924;4.754;2023-07-29T10:37:55;3.47;;;1.80;;
40599;SDS011;26309;50.924;4.754;2023-07-29T10:40:21;1.88;;;1.58;;
40599;SDS011;26309;50.924;4.754;2023-07-29T10:43:00;2.70;;;1.50;;
40599;SDS011;26309;50.924;4.754;2023-07-29T10:45:39;4.20;;;1.70;;
40599;SDS011;26309;50.924;4.754;2023-07-29T10:48:10;1.60;;;1.50;;
40599;SDS011;26309;50.924;4.754;2023-07-29T10:50:37;5.00;;;1.83;;
40599;SDS011;26309;50.924;4.754;2023-07-29T10:53:03;5.93;;;1.88;;
40599;SDS011;26309;50.924;4.754;2023-07-29T10:55:34;1.92;;;1.60;;
40599;SDS011;26309;50.924;4.754;2023-07-29T10:58:14;2.33;;;1.90;;
40599;SDS011;26309;50.924;4.754;2023-07-29T11:00:44;2.67;;;1.98;;
40599;SDS011;26309;50.924;4.754;2023-07-29T11:03:11;4.00;;;1.75;;
40599;SDS011;26309;50.924;4.754;2023-07-29T11:05:45;2.13;;;1.80;;
40599;SDS011;26309;50.924;4.754;2023-07-29T11:13:29;2.47;;;2.20;;
40599;SDS011;26309;50.924;4.754;2023-07-29T11:15:56;3.53;;;2.13;;
40599;SDS011;26309;50.924;4.754;2023-07-29T11:18:26;3.25;;;1.80;;
40599;SDS011;26309;50.924;4.754;2023-07-29T11:20:58;2.30;;;2.08;;
40599;SDS011;26309;50.924;4.754;2023-07-29T11:23:28;2.55;;;1.95;;
40599;SDS011;26309;50.924;4.754;2023-07-29T11:25:56;3.03;;;2.03;;
40599;SDS011;26309;50.924;4.754;2023-07-29T11:28:22;2.80;;;1.92;;
40599;SDS011;26309;50.924;4.754;2023-07-29T11:30:49;2.83;;;1.77;;
40599;SDS011;26309;50.924;4.754;2023-07-29T11:33:28;4.18;;;1.95;;
40599;SDS011;26309;50.924;4.754;2023-07-29T11:35:55;1.90;;;1.80;;
40599;SDS011;26309;50.924;4.754;2023-07-29T11:38:22;4.18;;;2.30;;
40599;SDS011;26309;50.924;4.754;2023-07-29T11:40:59;2.88;;;1.88;;
40599;SDS011;26309;50.924;4.754;2023-07-29T11:43:25;3.35;;;1.90;;
40599;SDS011;26309;50.924;4.754;2023-07-29T11:45:52;5.03;;;2.10;;
40599;SDS011;26309;50.924;4.754;2023-07-29T11:48:25;4.47;;;2.08;;
40599;SDS011;26309;50.924;4.754;2023-07-29T11:50:56;3.38;;;2.65;;
40599;SDS011;26309;50.924;4.754;2023-07-29T11:53:25;5.57;;;2.15;;
40599;SDS011;26309;50.924;4.754;2023-07-29T11:55:54;3.65;;;1.98;;
40599;SDS011;26309;50.924;4.754;2023-07-29T11:58:20;3.83;;;1.92;;
40599;SDS011;26309;50.924;4.754;2023-07-29T12:00:46;2.03;;;1.83;;
40599;SDS011;26309;50.924;4.754;2023-07-29T12:03:13;2.05;;;1.80;;
40599;SDS011;26309;50.924;4.754;2023-07-29T12:05:41;2.60;;;1.92;;
40599;SDS011;26309;50.924;4.754;2023-07-29T12:08:07;2.20;;;2.00;;
40599;SDS011;26309;50.924;4.754;2023-07-29T12:10:34;3.50;;;2.05;;
40599;SDS011;26309;50.924;4.754;2023-07-29T12:13:01;1.60;;;1.50;;
40599;SDS011;26309;50.924;4.754;2023-07-29T12:15:28;3.60;;;1.90;;
40599;SDS011;26309;50.924;4.754;2023-07-29T12:17:55;1.63;;;1.52;;
40599;SDS011;26309;50.924;4.754;2023-07-29T12:20:24;2.90;;;1.67;;
40599;SDS011;26309;50.924;4.754;2023-07-29T12:23:08;2.13;;;1.63;;
40599;SDS011;26309;50.924;4.754;2023-07-29T12:25:36;3.58;;;1.58;;
40599;SDS011;26309;50.924;4.754;2023-07-29T12:28:05;2.40;;;1.88;;
40599;SDS011;26309;50.924;4.754;2023-07-29T12:30:31;1.80;;;1.50;;
40599;SDS011;26309;50.924;4.754;2023-07-29T12:32:57;2.33;;;1.63;;
40599;SDS011;26309;50.924;4.754;2023-07-29T12:35:24;2.75;;;1.77;;
40599;SDS011;26309;50.924;4.754;2023-07-29T12:37:58;2.53;;;1.80;;
40599;SDS011;26309;50.924;4.754;2023-07-29T12:40:25;2.10;;;1.90;;
40599;SDS011;26309;50.924;4.754;2023-07-29T12:42:51;2.45;;;2.22;;
40599;SDS011;26309;50.924;4.754;2023-07-29T12:45:18;8.30;;;2.45;;
40599;SDS011;26309;50.924;4.754;2023-07-29T12:47:45;3.00;;;2.60;;
40599;SDS011;26309;50.924;4.754;2023-07-29T12:50:11;3.15;;;2.85;;
40599;SDS011;26309;50.924;4.754;2023-07-29T12:52:37;3.80;;;3.13;;
40599;SDS011;26309;50.924;4.754;2023-07-29T12:55:04;3.67;;;3.38;;
40599;SDS011;26309;50.924;4.754;2023-07-29T12:57:30;6.15;;;3.30;;
40599;SDS011;26309;50.924;4.754;2023-07-29T12:59:56;6.43;;;3.45;;
40599;SDS011;26309;50.924;4.754;2023-07-29T13:02:22;6.30;;;3.60;;
40599;SDS011;26309;50.924;4.754;2023-07-29T13:04:50;4.85;;;3.30;;
40599;SDS011;26309;50.924;4.754;2023-07-29T13:07:26;3.47;;;3.17;;
40599;SDS011;26309;50.924;4.754;2023-07-29T13:09:52;4.82;;;3.17;;
40599;SDS011;26309;50.924;4.754;2023-07-29T13:12:18;5.20;;;3.22;;
40599;SDS011;26309;50.924;4.754;2023-07-29T13:14:44;3.50;;;3.20;;
40599;SDS011;26309;50.924;4.754;2023-07-29T13:17:09;7.30;;;3.10;;
40599;SDS011;26309;50.924;4.754;2023-07-29T13:19:36;2.72;;;2.53;;
40599;SDS011;26309;50.924;4.754;2023-07-29T13:22:02;2.85;;;2.65;;
40599;SDS011;26309;50.924;4.754;2023-07-29T13:24:28;4.32;;;2.88;;
40599;SDS011;26309;50.924;4.754;2023-07-29T13:26:53;3.22;;;2.45;;
40599;SDS011;26309;50.924;4.754;2023-07-29T13:29:19;2.78;;;2.50;;
40599;SDS011;26309;50.924;4.754;2023-07-29T13:31:45;3.70;;;2.33;;
40599;SDS011;26309;50.924;4.754;2023-07-29T13:34:13;3.28;;;2.90;;
40599;SDS011;26309;50.924;4.754;2023-07-29T13:36:39;3.03;;;2.42;;
40599;SDS011;26309;50.924;4.754;2023-07-29T13:39:05;3.75;;;2.30;;
40599;SDS011;26309;50.924;4.754;2023-07-29T13:41:30;5.03;;;2.50;;
40599;SDS011;26309;50.924;4.754;2023-07-29T13:43:56;3.88;;;2.28;;
40599;SDS011;26309;50.924;4.754;2023-07-29T13:46:22;2.28;;;2.08;;
40599;SDS011;26309;50.924;4.754;2023-07-29T13:48:48;2.75;;;1.90;;
40599;SDS011;26309;50.924;4.754;2023-07-29T13:51:14;2.53;;;1.60;;
40599;SDS011;26309;50.924;4.754;2023-07-29T13:53:40;3.05;;;1.92;;
40599;SDS011;26309;50.924;4.754;2023-07-29T13:56:05;4.53;;;1.85;;
40599;SDS011;26309;50.924;4.754;2023-07-29T13:58:31;2.00;;;1.90;;
40599;SDS011;26309;50.924;4.754;2023-07-29T14:00:57;2.10;;;1.90;;
40599;SDS011;26309;50.924;4.754;2023-07-29T14:03:23;2.25;;;1.85;;
40599;SDS011;26309;50.924;4.754;2023-07-29T14:05:48;2.85;;;1.80;;
40599;SDS011;26309;50.924;4.754;2023-07-29T14:08:14;3.38;;;1.83;;
40599;SDS011;26309;50.924;4.754;2023-07-29T14:10:43;3.63;;;1.80;;
40599;SDS011;26309;50.924;4.754;2023-07-29T14:13:09;3.70;;;1.90;;
40599;SDS011;26309;50.924;4.754;2023-07-29T14:15:34;6.95;;;1.67;;
40599;SDS011;26309;50.924;4.754;2023-07-29T14:18:00;1.83;;;1.70;;
40599;SDS011;26309;50.924;4.754;2023-07-29T14:20:27;1.73;;;1.63;;
40599;SDS011;26309;50.924;4.754;2023-07-29T14:22:53;1.70;;;1.60;;
40599;SDS011;26309;50.924;4.754;2023-07-29T14:25:19;3.05;;;1.80;;
40599;SDS011;26309;50.924;4.754;2023-07-29T14:27:45;1.80;;;1.70;;
40599;SDS011;26309;50.924;4.754;2023-07-29T14:30:11;2.25;;;1.85;;
40599;SDS011;26309;50.924;4.754;2023-07-29T14:32:37;1.92;;;1.77;;
40599;SDS011;26309;50.924;4.754;2023-07-29T14:35:03;2.03;;;1.83;;
40599;SDS011;26309;50.924;4.754;2023-07-29T14:37:29;2.72;;;1.90;;
40599;SDS011;26309;50.924;4.754;2023-07-29T14:39:56;2.92;;;1.42;;
40599;SDS011;26309;50.924;4.754;2023-07-29T14:42:23;2.78;;;1.60;;
40599;SDS011;26309;50.924;4.754;2023-07-29T14:44:49;1.98;;;1.65;;
40599;SDS011;26309;50.924;4.754;2023-07-29T14:47:15;2.47;;;1.80;;
40599;SDS011;26309;50.924;4.754;2023-07-29T14:49:41;2.08;;;1.50;;
40599;SDS011;26309;50.924;4.754;2023-07-29T14:52:09;2.22;;;1.63;;
40599;SDS011;26309;50.924;4.754;2023-07-29T14:54:34;2.60;;;1.35;;
40599;SDS011;26309;50.924;4.754;2023-07-29T14:57:00;1.33;;;1.23;;
40599;SDS011;26309;50.924;4.754;2023-07-29T14:59:26;1.67;;;1.50;;
40599;SDS011;26309;50.924;4.754;2023-07-29T15:01:52;1.23;;;1.13;;
40599;SDS011;26309;50.924;4.754;2023-07-29T15:04:18;1.45;;;1.35;;
40599;SDS011;26309;50.924;4.754;2023-07-29T15:06:44;1.25;;;1.20;;